sensor_id;sensor_type;location;lat;lon;timestamp;P1;durP1;ratioP1;P2;durP2;ratioP2
54167;SDS011;68429;50.958;3.592;2023-09-19T00:01:57;15.13;;;2.70;;
54167;SDS011;68429;50.958;3.592;2023-09-19T00:04:23;14.43;;;2.47;;
54167;SDS011;68429;50.958;3.592;2023-09-19T00:06:54;22.45;;;3.45;;
54167;SDS011;68429;50.958;3.592;2023-09-19T00:09:19;12.60;;;2.55;;
54167;SDS011;68429;50.958;3.592;2023-09-19T00:11:45;17.98;;;3.78;;
54167;SDS011;68429;50.958;3.592;2023-09-19T00:14:12;11.43;;;3.45;;
54167;SDS011;68429;50.958;3.592;2023-09-19T00:16:39;10.45;;;2.50;;
54167;SDS011;68429;50.958;3.592;2023-09-19T00:19:06;13.25;;;2.78;;
54167;SDS011;68429;50.958;3.592;2023-09-19T00:21:32;11.65;;;3.08;;
54167;SDS011;68429;50.958;3.592;2023-09-19T00:23:58;14.52;;;3.38;;
54167;SDS011;68429;50.958;3.592;2023-09-19T00:26:23;11.43;;;2.75;;
54167;SDS011;68429;50.958;3.592;2023-09-19T00:28:52;14.20;;;3.42;;
54167;SDS011;68429;50.958;3.592;2023-09-19T00:31:17;12.43;;;2.92;;
54167;SDS011;68429;50.958;3.592;2023-09-19T00:33:43;11.27;;;3.00;;
54167;SDS011;68429;50.958;3.592;2023-09-19T00:36:09;15.25;;;3.28;;
54167;SDS011;68429;50.958;3.592;2023-09-19T00:38:34;17.80;;;2.92;;
54167;SDS011;68429;50.958;3.592;2023-09-19T00:41:00;16.20;;;3.42;;
54167;SDS011;68429;50.958;3.592;2023-09-19T00:43:26;12.32;;;2.80;;
54167;SDS011;68429;50.958;3.592;2023-09-19T00:45:53;21.02;;;3.25;;
54167;SDS011;68429;50.958;3.592;2023-09-19T00:48:22;11.18;;;2.83;;
54167;SDS011;68429;50.958;3.592;2023-09-19T00:50:52;12.30;;;3.10;;
54167;SDS011;68429;50.958;3.592;2023-09-19T00:53:20;14.85;;;3.28;;
54167;SDS011;68429;50.958;3.592;2023-09-19T00:55:48;15.95;;;3.30;;
54167;SDS011;68429;50.958;3.592;2023-09-19T00:58:16;10.95;;;2.90;;
54167;SDS011;68429;50.958;3.592;2023-09-19T01:00:43;13.98;;;3.13;;
54167;SDS011;68429;50.958;3.592;2023-09-19T01:03:10;16.20;;;3.20;;
54167;SDS011;68429;50.958;3.592;2023-09-19T01:05:38;15.20;;;3.05;;
54167;SDS011;68429;50.958;3.592;2023-09-19T01:08:04;17.02;;;3.60;;
54167;SDS011;68429;50.958;3.592;2023-09-19T01:10:31;12.45;;;3.00;;
54167;SDS011;68429;50.958;3.592;2023-09-19T01:22:21;17.60;;;3.58;;
54167;SDS011;68429;50.958;3.592;2023-09-19T01:25:20;15.20;;;2.92;;
54167;SDS011;68429;50.958;3.592;2023-09-19T01:28:32;13.10;;;3.00;;
54167;SDS011;68429;50.958;3.592;2023-09-19T01:31:03;23.35;;;3.72;;
54167;SDS011;68429;50.958;3.592;2023-09-19T01:36:22;16.00;;;2.80;;
54167;SDS011;68429;50.958;3.592;2023-09-19T01:38:49;13.77;;;2.70;;
54167;SDS011;68429;50.958;3.592;2023-09-19T01:41:16;19.25;;;3.38;;
54167;SDS011;68429;50.958;3.592;2023-09-19T01:43:48;13.95;;;3.60;;
54167;SDS011;68429;50.958;3.592;2023-09-19T01:46:21;17.70;;;4.45;;
54167;SDS011;68429;50.958;3.592;2023-09-19T01:51:34;12.57;;;3.08;;
54167;SDS011;68429;50.958;3.592;2023-09-19T01:54:09;21.75;;;3.80;;
54167;SDS011;68429;50.958;3.592;2023-09-19T01:59:28;13.00;;;3.20;;
54167;SDS011;68429;50.958;3.592;2023-09-19T02:02:00;15.48;;;3.17;;
54167;SDS011;68429;50.958;3.592;2023-09-19T02:04:27;17.25;;;3.13;;
54167;SDS011;68429;50.958;3.592;2023-09-19T02:06:53;20.88;;;3.30;;
54167;SDS011;68429;50.958;3.592;2023-09-19T02:09:18;23.20;;;3.58;;
54167;SDS011;68429;50.958;3.592;2023-09-19T02:11:44;16.17;;;3.25;;
54167;SDS011;68429;50.958;3.592;2023-09-19T02:14:10;15.75;;;3.45;;
54167;SDS011;68429;50.958;3.592;2023-09-19T02:16:35;14.15;;;2.85;;
54167;SDS011;68429;50.958;3.592;2023-09-19T02:19:01;17.42;;;4.50;;
54167;SDS011;68429;50.958;3.592;2023-09-19T02:21:30;23.65;;;3.78;;
54167;SDS011;68429;50.958;3.592;2023-09-19T02:23:56;17.92;;;3.95;;
54167;SDS011;68429;50.958;3.592;2023-09-19T02:26:23;14.95;;;3.17;;
54167;SDS011;68429;50.958;3.592;2023-09-19T02:28:49;15.50;;;3.47;;
54167;SDS011;68429;50.958;3.592;2023-09-19T02:31:15;16.92;;;3.92;;
54167;SDS011;68429;50.958;3.592;2023-09-19T02:33:41;16.63;;;3.10;;
54167;SDS011;68429;50.958;3.592;2023-09-19T02:36:07;23.13;;;4.50;;
54167;SDS011;68429;50.958;3.592;2023-09-19T02:38:33;12.88;;;2.85;;
54167;SDS011;68429;50.958;3.592;2023-09-19T02:40:59;15.38;;;3.05;;
54167;SDS011;68429;50.958;3.592;2023-09-19T02:43:25;13.93;;;3.30;;
54167;SDS011;68429;50.958;3.592;2023-09-19T02:45:51;14.60;;;3.15;;
54167;SDS011;68429;50.958;3.592;2023-09-19T02:48:19;12.32;;;3.60;;
54167;SDS011;68429;50.958;3.592;2023-09-19T02:50:45;14.73;;;2.95;;
54167;SDS011;68429;50.958;3.592;2023-09-19T02:53:11;12.38;;;2.40;;
54167;SDS011;68429;50.958;3.592;2023-09-19T02:55:38;19.45;;;3.45;;
54167;SDS011;68429;50.958;3.592;2023-09-19T02:58:06;15.88;;;3.15;;
54167;SDS011;68429;50.958;3.592;2023-09-19T03:00:36;15.15;;;3.05;;
54167;SDS011;68429;50.958;3.592;2023-09-19T03:03:03;20.85;;;2.80;;
54167;SDS011;68429;50.958;3.592;2023-09-19T03:05:31;17.48;;;3.35;;
54167;SDS011;68429;50.958;3.592;2023-09-19T03:07:57;12.80;;;2.80;;
54167;SDS011;68429;50.958;3.592;2023-09-19T03:10:25;22.33;;;4.15;;
54167;SDS011;68429;50.958;3.592;2023-09-19T03:12:53;14.10;;;2.72;;
54167;SDS011;68429;50.958;3.592;2023-09-19T03:15:19;17.83;;;3.30;;
54167;SDS011;68429;50.958;3.592;2023-09-19T03:17:46;14.40;;;3.33;;
54167;SDS011;68429;50.958;3.592;2023-09-19T03:20:12;16.85;;;4.03;;
54167;SDS011;68429;50.958;3.592;2023-09-19T03:22:39;19.52;;;3.53;;
54167;SDS011;68429;50.958;3.592;2023-09-19T03:25:05;19.13;;;3.28;;
54167;SDS011;68429;50.958;3.592;2023-09-19T03:27:36;14.25;;;2.95;;
54167;SDS011;68429;50.958;3.592;2023-09-19T03:30:03;19.50;;;4.25;;
54167;SDS011;68429;50.958;3.592;2023-09-19T03:32:36;19.40;;;3.78;;
54167;SDS011;68429;50.958;3.592;2023-09-19T03:35:03;14.20;;;3.40;;
54167;SDS011;68429;50.958;3.592;2023-09-19T03:37:32;16.77;;;3.47;;
54167;SDS011;68429;50.958;3.592;2023-09-19T03:40:00;18.95;;;4.05;;
54167;SDS011;68429;50.958;3.592;2023-09-19T03:42:30;22.25;;;3.40;;
54167;SDS011;68429;50.958;3.592;2023-09-19T03:44:56;13.93;;;3.53;;
54167;SDS011;68429;50.958;3.592;2023-09-19T03:47:22;23.30;;;3.38;;
54167;SDS011;68429;50.958;3.592;2023-09-19T03:49:47;21.60;;;4.15;;
54167;SDS011;68429;50.958;3.592;2023-09-19T03:52:13;17.17;;;3.47;;
54167;SDS011;68429;50.958;3.592;2023-09-19T03:54:40;15.32;;;3.33;;
54167;SDS011;68429;50.958;3.592;2023-09-19T03:57:06;16.33;;;3.63;;
54167;SDS011;68429;50.958;3.592;2023-09-19T03:59:32;22.80;;;3.70;;
54167;SDS011;68429;50.958;3.592;2023-09-19T04:01:58;16.05;;;3.22;;
54167;SDS011;68429;50.958;3.592;2023-09-19T04:04:24;15.02;;;2.88;;
54167;SDS011;68429;50.958;3.592;2023-09-19T04:06:50;18.42;;;3.45;;
54167;SDS011;68429;50.958;3.592;2023-09-19T04:09:16;20.42;;;4.15;;
54167;SDS011;68429;50.958;3.592;2023-09-19T04:11:42;19.92;;;3.42;;
54167;SDS011;68429;50.958;3.592;2023-09-19T04:14:07;12.15;;;2.60;;
54167;SDS011;68429;50.958;3.592;2023-09-19T04:16:33;16.38;;;3.58;;
54167;SDS011;68429;50.958;3.592;2023-09-19T04:18:58;15.85;;;3.08;;
54167;SDS011;68429;50.958;3.592;2023-09-19T04:21:24;13.70;;;3.05;;
54167;SDS011;68429;50.958;3.592;2023-09-19T04:23:50;19.35;;;3.00;;
54167;SDS011;68429;50.958;3.592;2023-09-19T04:26:16;19.08;;;3.28;;
54167;SDS011;68429;50.958;3.592;2023-09-19T04:28:42;20.13;;;3.55;;
54167;SDS011;68429;50.958;3.592;2023-09-19T04:31:08;19.45;;;4.25;;
54167;SDS011;68429;50.958;3.592;2023-09-19T04:33:36;16.35;;;3.50;;
54167;SDS011;68429;50.958;3.592;2023-09-19T04:36:02;16.20;;;3.08;;
54167;SDS011;68429;50.958;3.592;2023-09-19T04:38:32;19.35;;;3.53;;
54167;SDS011;68429;50.958;3.592;2023-09-19T04:40:58;23.80;;;3.33;;
54167;SDS011;68429;50.958;3.592;2023-09-19T04:43:25;19.33;;;3.30;;
54167;SDS011;68429;50.958;3.592;2023-09-19T04:45:51;20.20;;;3.65;;
54167;SDS011;68429;50.958;3.592;2023-09-19T04:50:48;16.70;;;3.55;;
54167;SDS011;68429;50.958;3.592;2023-09-19T04:53:14;19.45;;;3.38;;
54167;SDS011;68429;50.958;3.592;2023-09-19T04:55:39;18.42;;;2.80;;
54167;SDS011;68429;50.958;3.592;2023-09-19T04:58:05;13.02;;;2.90;;
54167;SDS011;68429;50.958;3.592;2023-09-19T05:00:31;18.15;;;3.20;;
54167;SDS011;68429;50.958;3.592;2023-09-19T05:03:00;20.63;;;3.35;;
54167;SDS011;68429;50.958;3.592;2023-09-19T05:05:26;11.50;;;2.92;;
54167;SDS011;68429;50.958;3.592;2023-09-19T05:07:52;19.85;;;3.72;;
54167;SDS011;68429;50.958;3.592;2023-09-19T05:10:19;18.63;;;3.70;;
54167;SDS011;68429;50.958;3.592;2023-09-19T05:12:45;15.55;;;3.67;;
54167;SDS011;68429;50.958;3.592;2023-09-19T05:15:13;17.65;;;4.07;;
54167;SDS011;68429;50.958;3.592;2023-09-19T05:17:42;17.05;;;3.15;;
54167;SDS011;68429;50.958;3.592;2023-09-19T05:20:13;17.30;;;3.15;;
54167;SDS011;68429;50.958;3.592;2023-09-19T05:22:49;17.98;;;3.42;;
54167;SDS011;68429;50.958;3.592;2023-09-19T05:25:15;24.55;;;3.83;;
54167;SDS011;68429;50.958;3.592;2023-09-19T05:27:43;20.38;;;3.55;;
54167;SDS011;68429;50.958;3.592;2023-09-19T05:30:09;15.48;;;3.28;;
54167;SDS011;68429;50.958;3.592;2023-09-19T05:32:35;17.98;;;3.40;;
54167;SDS011;68429;50.958;3.592;2023-09-19T05:35:01;19.85;;;3.83;;
54167;SDS011;68429;50.958;3.592;2023-09-19T05:37:28;13.63;;;3.20;;
54167;SDS011;68429;50.958;3.592;2023-09-19T05:39:54;14.70;;;3.17;;
54167;SDS011;68429;50.958;3.592;2023-09-19T05:42:20;17.73;;;3.30;;
54167;SDS011;68429;50.958;3.592;2023-09-19T05:44:46;15.98;;;3.63;;
54167;SDS011;68429;50.958;3.592;2023-09-19T05:47:11;14.75;;;3.25;;
54167;SDS011;68429;50.958;3.592;2023-09-19T05:49:38;16.55;;;3.28;;
54167;SDS011;68429;50.958;3.592;2023-09-19T05:52:07;15.45;;;2.70;;
54167;SDS011;68429;50.958;3.592;2023-09-19T05:54:33;17.40;;;3.03;;
54167;SDS011;68429;50.958;3.592;2023-09-19T05:59:28;19.23;;;3.83;;
54167;SDS011;68429;50.958;3.592;2023-09-19T06:01:54;17.17;;;3.40;;
54167;SDS011;68429;50.958;3.592;2023-09-19T06:04:20;16.10;;;3.45;;
54167;SDS011;68429;50.958;3.592;2023-09-19T06:06:46;13.23;;;2.47;;
54167;SDS011;68429;50.958;3.592;2023-09-19T06:09:13;17.45;;;3.58;;
54167;SDS011;68429;50.958;3.592;2023-09-19T06:11:41;17.15;;;3.72;;
54167;SDS011;68429;50.958;3.592;2023-09-19T06:14:07;18.88;;;2.67;;
54167;SDS011;68429;50.958;3.592;2023-09-19T06:16:35;10.90;;;2.85;;
54167;SDS011;68429;50.958;3.592;2023-09-19T06:19:03;21.98;;;3.85;;
54167;SDS011;68429;50.958;3.592;2023-09-19T06:21:31;18.98;;;2.80;;
54167;SDS011;68429;50.958;3.592;2023-09-19T06:23:57;17.60;;;3.47;;
54167;SDS011;68429;50.958;3.592;2023-09-19T06:26:23;14.38;;;3.33;;
54167;SDS011;68429;50.958;3.592;2023-09-19T06:28:48;19.77;;;3.67;;
54167;SDS011;68429;50.958;3.592;2023-09-19T06:31:14;19.25;;;3.40;;
54167;SDS011;68429;50.958;3.592;2023-09-19T06:33:40;18.92;;;4.00;;
54167;SDS011;68429;50.958;3.592;2023-09-19T06:36:06;16.33;;;3.22;;
54167;SDS011;68429;50.958;3.592;2023-09-19T06:38:32;14.55;;;2.80;;
54167;SDS011;68429;50.958;3.592;2023-09-19T06:41:01;20.97;;;3.23;;
54167;SDS011;68429;50.958;3.592;2023-09-19T06:43:30;20.33;;;3.28;;
54167;SDS011;68429;50.958;3.592;2023-09-19T06:45:57;13.55;;;3.45;;
54167;SDS011;68429;50.958;3.592;2023-09-19T06:48:24;12.57;;;2.65;;
54167;SDS011;68429;50.958;3.592;2023-09-19T06:50:52;9.85;;;2.58;;
54167;SDS011;68429;50.958;3.592;2023-09-19T06:53:20;16.13;;;3.28;;
54167;SDS011;68429;50.958;3.592;2023-09-19T06:55:47;15.55;;;3.28;;
54167;SDS011;68429;50.958;3.592;2023-09-19T06:58:13;17.70;;;3.83;;
54167;SDS011;68429;50.958;3.592;2023-09-19T07:00:38;19.85;;;3.25;;
54167;SDS011;68429;50.958;3.592;2023-09-19T07:03:07;14.85;;;2.85;;
54167;SDS011;68429;50.958;3.592;2023-09-19T07:05:36;14.48;;;2.83;;
54167;SDS011;68429;50.958;3.592;2023-09-19T07:08:04;10.57;;;2.42;;
54167;SDS011;68429;50.958;3.592;2023-09-19T07:10:31;17.40;;;3.17;;
54167;SDS011;68429;50.958;3.592;2023-09-19T07:13:01;12.68;;;3.15;;
54167;SDS011;68429;50.958;3.592;2023-09-19T07:15:28;17.77;;;3.63;;
54167;SDS011;68429;50.958;3.592;2023-09-19T07:17:55;15.93;;;3.42;;
54167;SDS011;68429;50.958;3.592;2023-09-19T07:20:22;12.80;;;2.38;;
54167;SDS011;68429;50.958;3.592;2023-09-19T07:22:52;10.80;;;2.83;;
54167;SDS011;68429;50.958;3.592;2023-09-19T07:25:20;9.57;;;2.53;;
54167;SDS011;68429;50.958;3.592;2023-09-19T07:27:46;9.85;;;2.45;;
54167;SDS011;68429;50.958;3.592;2023-09-19T07:30:12;18.90;;;2.65;;
54167;SDS011;68429;50.958;3.592;2023-09-19T07:32:38;14.25;;;2.95;;
54167;SDS011;68429;50.958;3.592;2023-09-19T07:35:05;13.48;;;3.15;;
54167;SDS011;68429;50.958;3.592;2023-09-19T07:37:32;20.58;;;3.15;;
54167;SDS011;68429;50.958;3.592;2023-09-19T07:40:02;20.35;;;3.97;;
54167;SDS011;68429;50.958;3.592;2023-09-19T07:42:32;12.27;;;2.65;;
54167;SDS011;68429;50.958;3.592;2023-09-19T07:45:00;20.38;;;3.47;;
54167;SDS011;68429;50.958;3.592;2023-09-19T07:47:26;13.75;;;3.38;;
54167;SDS011;68429;50.958;3.592;2023-09-19T07:49:52;10.80;;;2.40;;
54167;SDS011;68429;50.958;3.592;2023-09-19T07:52:18;18.63;;;3.50;;
54167;SDS011;68429;50.958;3.592;2023-09-19T07:54:44;13.35;;;3.72;;
54167;SDS011;68429;50.958;3.592;2023-09-19T07:57:10;14.23;;;2.92;;
54167;SDS011;68429;50.958;3.592;2023-09-19T07:59:36;17.67;;;3.10;;
54167;SDS011;68429;50.958;3.592;2023-09-19T08:02:03;14.77;;;3.05;;
54167;SDS011;68429;50.958;3.592;2023-09-19T08:04:30;14.18;;;3.15;;
54167;SDS011;68429;50.958;3.592;2023-09-19T08:06:58;10.47;;;1.90;;
54167;SDS011;68429;50.958;3.592;2023-09-19T08:09:28;17.40;;;3.38;;
54167;SDS011;68429;50.958;3.592;2023-09-19T08:14:24;17.63;;;2.88;;
54167;SDS011;68429;50.958;3.592;2023-09-19T08:16:51;17.90;;;3.10;;
54167;SDS011;68429;50.958;3.592;2023-09-19T08:19:16;16.23;;;2.83;;
54167;SDS011;68429;50.958;3.592;2023-09-19T08:21:42;12.05;;;3.00;;
54167;SDS011;68429;50.958;3.592;2023-09-19T08:24:12;12.82;;;2.63;;
54167;SDS011;68429;50.958;3.592;2023-09-19T08:26:39;18.83;;;3.35;;
54167;SDS011;68429;50.958;3.592;2023-09-19T08:29:05;16.13;;;3.42;;
54167;SDS011;68429;50.958;3.592;2023-09-19T08:31:32;20.80;;;3.22;;
54167;SDS011;68429;50.958;3.592;2023-09-19T08:33:58;14.95;;;3.10;;
54167;SDS011;68429;50.958;3.592;2023-09-19T08:36:25;16.40;;;3.25;;
54167;SDS011;68429;50.958;3.592;2023-09-19T08:38:50;12.32;;;2.67;;
54167;SDS011;68429;50.958;3.592;2023-09-19T08:41:16;20.92;;;2.92;;
54167;SDS011;68429;50.958;3.592;2023-09-19T08:43:42;10.95;;;3.10;;
54167;SDS011;68429;50.958;3.592;2023-09-19T08:46:11;13.52;;;2.60;;
54167;SDS011;68429;50.958;3.592;2023-09-19T08:48:49;13.18;;;2.60;;
54167;SDS011;68429;50.958;3.592;2023-09-19T08:51:41;15.50;;;3.15;;
54167;SDS011;68429;50.958;3.592;2023-09-19T08:56:48;8.75;;;2.03;;
54167;SDS011;68429;50.958;3.592;2023-09-19T08:59:16;12.63;;;2.72;;
54167;SDS011;68429;50.958;3.592;2023-09-19T09:01:49;14.82;;;3.10;;
54167;SDS011;68429;50.958;3.592;2023-09-19T09:04:18;13.25;;;3.13;;
54167;SDS011;68429;50.958;3.592;2023-09-19T09:06:45;21.95;;;3.15;;
54167;SDS011;68429;50.958;3.592;2023-09-19T09:09:14;11.57;;;2.40;;
54167;SDS011;68429;50.958;3.592;2023-09-19T09:11:40;10.90;;;3.03;;
54167;SDS011;68429;50.958;3.592;2023-09-19T09:14:06;10.98;;;1.98;;
54167;SDS011;68429;50.958;3.592;2023-09-19T09:16:36;11.07;;;2.72;;
54167;SDS011;68429;50.958;3.592;2023-09-19T09:19:01;13.43;;;2.58;;
54167;SDS011;68429;50.958;3.592;2023-09-19T09:21:27;9.38;;;2.10;;
54167;SDS011;68429;50.958;3.592;2023-09-19T09:23:54;12.98;;;3.78;;
54167;SDS011;68429;50.958;3.592;2023-09-19T09:29:04;8.60;;;2.50;;
54167;SDS011;68429;50.958;3.592;2023-09-19T09:31:30;11.35;;;2.90;;
54167;SDS011;68429;50.958;3.592;2023-09-19T09:33:56;8.00;;;1.83;;
54167;SDS011;68429;50.958;3.592;2023-09-19T09:36:36;8.25;;;1.80;;
54167;SDS011;68429;50.958;3.592;2023-09-19T09:39:05;7.00;;;1.60;;
54167;SDS011;68429;50.958;3.592;2023-09-19T09:41:43;10.03;;;1.80;;
54167;SDS011;68429;50.958;3.592;2023-09-19T09:44:14;11.60;;;2.38;;
54167;SDS011;68429;50.958;3.592;2023-09-19T09:46:44;9.82;;;2.80;;
54167;SDS011;68429;50.958;3.592;2023-09-19T09:49:39;7.20;;;1.92;;
54167;SDS011;68429;50.958;3.592;2023-09-19T09:52:06;9.10;;;1.63;;
54167;SDS011;68429;50.958;3.592;2023-09-19T09:54:33;11.15;;;2.08;;
54167;SDS011;68429;50.958;3.592;2023-09-19T09:57:09;10.75;;;1.80;;
54167;SDS011;68429;50.958;3.592;2023-09-19T10:02:35;7.97;;;1.83;;
54167;SDS011;68429;50.958;3.592;2023-09-19T10:05:15;6.90;;;2.33;;
54167;SDS011;68429;50.958;3.592;2023-09-19T10:07:45;6.22;;;1.27;;
54167;SDS011;68429;50.958;3.592;2023-09-19T10:10:35;5.82;;;1.52;;
54167;SDS011;68429;50.958;3.592;2023-09-19T10:13:08;6.68;;;1.38;;
54167;SDS011;68429;50.958;3.592;2023-09-19T10:18:06;5.28;;;1.67;;
54167;SDS011;68429;50.958;3.592;2023-09-19T10:20:43;4.50;;;1.40;;
54167;SDS011;68429;50.958;3.592;2023-09-19T10:23:10;3.22;;;1.00;;
54167;SDS011;68429;50.958;3.592;2023-09-19T10:25:45;3.67;;;1.20;;
54167;SDS011;68429;50.958;3.592;2023-09-19T10:28:12;3.88;;;1.27;;
54167;SDS011;68429;50.958;3.592;2023-09-19T10:30:44;5.05;;;1.45;;
54167;SDS011;68429;50.958;3.592;2023-09-19T10:33:13;6.70;;;1.10;;
54167;SDS011;68429;50.958;3.592;2023-09-19T10:35:42;7.60;;;1.73;;
54167;SDS011;68429;50.958;3.592;2023-09-19T10:38:17;2.45;;;0.73;;
54167;SDS011;68429;50.958;3.592;2023-09-19T10:40:48;3.13;;;1.13;;
54167;SDS011;68429;50.958;3.592;2023-09-19T10:43:16;5.18;;;1.15;;
54167;SDS011;68429;50.958;3.592;2023-09-19T10:45:43;8.10;;;1.55;;
54167;SDS011;68429;50.958;3.592;2023-09-19T10:48:11;2.28;;;0.95;;
54167;SDS011;68429;50.958;3.592;2023-09-19T10:53:29;6.22;;;1.08;;
54167;SDS011;68429;50.958;3.592;2023-09-19T10:56:06;6.57;;;1.20;;
54167;SDS011;68429;50.958;3.592;2023-09-19T10:58:35;4.22;;;1.10;;
54167;SDS011;68429;50.958;3.592;2023-09-19T11:01:04;7.18;;;1.30;;
54167;SDS011;68429;50.958;3.592;2023-09-19T11:03:32;1.80;;;0.82;;
54167;SDS011;68429;50.958;3.592;2023-09-19T11:08:51;3.80;;;1.05;;
54167;SDS011;68429;50.958;3.592;2023-09-19T11:15:05;7.22;;;1.35;;
54167;SDS011;68429;50.958;3.592;2023-09-19T11:30:40;3.95;;;1.27;;
54167;SDS011;68429;50.958;3.592;2023-09-19T11:33:24;3.40;;;1.08;;
54167;SDS011;68429;50.958;3.592;2023-09-19T11:36:08;4.28;;;1.33;;
54167;SDS011;68429;50.958;3.592;2023-09-19T11:44:38;7.00;;;1.15;;
54167;SDS011;68429;50.958;3.592;2023-09-19T11:46:52;6.82;;;1.40;;
54167;SDS011;68429;50.958;3.592;2023-09-19T11:49:27;4.53;;;1.30;;
54167;SDS011;68429;50.958;3.592;2023-09-19T11:51:55;4.85;;;1.50;;
54167;SDS011;68429;50.958;3.592;2023-09-19T11:54:22;3.63;;;1.60;;
54167;SDS011;68429;50.958;3.592;2023-09-19T11:56:49;5.10;;;1.48;;
54167;SDS011;68429;50.958;3.592;2023-09-19T12:02:04;5.07;;;1.40;;
54167;SDS011;68429;50.958;3.592;2023-09-19T12:04:37;3.83;;;1.58;;
54167;SDS011;68429;50.958;3.592;2023-09-19T12:09:42;5.35;;;1.77;;
54167;SDS011;68429;50.958;3.592;2023-09-19T12:12:18;7.60;;;2.08;;
54167;SDS011;68429;50.958;3.592;2023-09-19T12:14:48;5.03;;;1.65;;
54167;SDS011;68429;50.958;3.592;2023-09-19T12:17:15;5.55;;;1.77;;
54167;SDS011;68429;50.958;3.592;2023-09-19T12:19:56;7.55;;;2.10;;
54167;SDS011;68429;50.958;3.592;2023-09-19T12:22:21;6.32;;;1.88;;
54167;SDS011;68429;50.958;3.592;2023-09-19T12:24:47;4.75;;;1.13;;
54167;SDS011;68429;50.958;3.592;2023-09-19T12:27:13;3.85;;;1.20;;
54167;SDS011;68429;50.958;3.592;2023-09-19T12:29:43;5.38;;;1.80;;
54167;SDS011;68429;50.958;3.592;2023-09-19T12:32:36;6.95;;;1.60;;
54167;SDS011;68429;50.958;3.592;2023-09-19T12:35:05;7.55;;;1.48;;
54167;SDS011;68429;50.958;3.592;2023-09-19T12:37:35;5.13;;;1.67;;
54167;SDS011;68429;50.958;3.592;2023-09-19T12:40:06;9.05;;;1.67;;
54167;SDS011;68429;50.958;3.592;2023-09-19T12:42:43;3.88;;;1.20;;
54167;SDS011;68429;50.958;3.592;2023-09-19T12:45:10;7.65;;;1.48;;
54167;SDS011;68429;50.958;3.592;2023-09-19T12:47:38;4.90;;;1.48;;
54167;SDS011;68429;50.958;3.592;2023-09-19T12:50:12;5.22;;;1.85;;
54167;SDS011;68429;50.958;3.592;2023-09-19T12:52:51;5.25;;;1.70;;
54167;SDS011;68429;50.958;3.592;2023-09-19T13:00:41;3.72;;;1.42;;
54167;SDS011;68429;50.958;3.592;2023-09-19T13:03:13;6.38;;;1.73;;
54167;SDS011;68429;50.958;3.592;2023-09-19T13:06:00;6.10;;;2.13;;
54167;SDS011;68429;50.958;3.592;2023-09-19T13:08:31;3.72;;;1.52;;
54167;SDS011;68429;50.958;3.592;2023-09-19T13:11:05;4.80;;;1.50;;
54167;SDS011;68429;50.958;3.592;2023-09-19T13:13:35;5.13;;;1.58;;
54167;SDS011;68429;50.958;3.592;2023-09-19T13:16:02;3.35;;;1.75;;
54167;SDS011;68429;50.958;3.592;2023-09-19T13:18:41;2.63;;;1.50;;
54167;SDS011;68429;50.958;3.592;2023-09-19T13:21:09;4.65;;;1.58;;
54167;SDS011;68429;50.958;3.592;2023-09-19T13:26:45;4.57;;;1.40;;
54167;SDS011;68429;50.958;3.592;2023-09-19T13:29:11;6.05;;;1.70;;
54167;SDS011;68429;50.958;3.592;2023-09-19T13:31:37;5.70;;;1.55;;
54167;SDS011;68429;50.958;3.592;2023-09-19T13:36:32;5.45;;;2.03;;
54167;SDS011;68429;50.958;3.592;2023-09-19T13:38:58;6.55;;;1.70;;
54167;SDS011;68429;50.958;3.592;2023-09-19T13:41:25;12.32;;;2.30;;
54167;SDS011;68429;50.958;3.592;2023-09-19T13:43:51;6.38;;;1.73;;
54167;SDS011;68429;50.958;3.592;2023-09-19T13:46:17;10.70;;;2.15;;
54167;SDS011;68429;50.958;3.592;2023-09-19T13:48:50;4.38;;;1.83;;
54167;SDS011;68429;50.958;3.592;2023-09-19T13:51:17;6.18;;;2.00;;
54167;SDS011;68429;50.958;3.592;2023-09-19T13:53:44;6.78;;;2.50;;
54167;SDS011;68429;50.958;3.592;2023-09-19T13:56:09;8.18;;;1.60;;
54167;SDS011;68429;50.958;3.592;2023-09-19T13:58:36;5.43;;;1.73;;
54167;SDS011;68429;50.958;3.592;2023-09-19T14:01:01;6.00;;;1.52;;
54167;SDS011;68429;50.958;3.592;2023-09-19T14:03:27;6.90;;;2.50;;
54167;SDS011;68429;50.958;3.592;2023-09-19T14:05:53;6.43;;;1.77;;
54167;SDS011;68429;50.958;3.592;2023-09-19T14:08:19;8.70;;;2.13;;
54167;SDS011;68429;50.958;3.592;2023-09-19T14:10:45;7.75;;;1.88;;
54167;SDS011;68429;50.958;3.592;2023-09-19T14:13:10;6.57;;;1.80;;
54167;SDS011;68429;50.958;3.592;2023-09-19T14:15:38;5.90;;;1.77;;
54167;SDS011;68429;50.958;3.592;2023-09-19T14:18:04;5.68;;;1.90;;
54167;SDS011;68429;50.958;3.592;2023-09-19T14:20:30;11.10;;;2.20;;
54167;SDS011;68429;50.958;3.592;2023-09-19T14:22:56;8.77;;;2.10;;
54167;SDS011;68429;50.958;3.592;2023-09-19T14:25:23;7.55;;;2.20;;
54167;SDS011;68429;50.958;3.592;2023-09-19T14:27:50;3.50;;;1.50;;
54167;SDS011;68429;50.958;3.592;2023-09-19T14:30:16;8.07;;;2.30;;
54167;SDS011;68429;50.958;3.592;2023-09-19T14:32:42;5.90;;;1.73;;
54167;SDS011;68429;50.958;3.592;2023-09-19T14:35:08;8.70;;;2.33;;
54167;SDS011;68429;50.958;3.592;2023-09-19T14:37:39;10.10;;;2.50;;
54167;SDS011;68429;50.958;3.592;2023-09-19T14:40:06;6.38;;;2.22;;
54167;SDS011;68429;50.958;3.592;2023-09-19T14:42:34;9.50;;;2.53;;
54167;SDS011;68429;50.958;3.592;2023-09-19T14:45:02;10.77;;;2.35;;
54167;SDS011;68429;50.958;3.592;2023-09-19T14:47:29;8.48;;;2.38;;
54167;SDS011;68429;50.958;3.592;2023-09-19T14:49:56;8.85;;;2.30;;
54167;SDS011;68429;50.958;3.592;2023-09-19T14:52:23;6.03;;;2.15;;
54167;SDS011;68429;50.958;3.592;2023-09-19T14:54:51;6.20;;;1.85;;
54167;SDS011;68429;50.958;3.592;2023-09-19T14:57:16;10.73;;;1.77;;
54167;SDS011;68429;50.958;3.592;2023-09-19T14:59:42;7.25;;;1.77;;
54167;SDS011;68429;50.958;3.592;2023-09-19T15:02:08;9.50;;;2.00;;
54167;SDS011;68429;50.958;3.592;2023-09-19T15:04:33;6.25;;;2.10;;
54167;SDS011;68429;50.958;3.592;2023-09-19T15:06:59;7.60;;;1.90;;
54167;SDS011;68429;50.958;3.592;2023-09-19T15:09:25;8.65;;;2.30;;
54167;SDS011;68429;50.958;3.592;2023-09-19T15:11:54;9.43;;;2.75;;
54167;SDS011;68429;50.958;3.592;2023-09-19T15:14:20;7.45;;;2.05;;
54167;SDS011;68429;50.958;3.592;2023-09-19T15:16:47;11.27;;;2.58;;
54167;SDS011;68429;50.958;3.592;2023-09-19T15:19:13;6.47;;;1.88;;
54167;SDS011;68429;50.958;3.592;2023-09-19T15:21:39;8.60;;;2.38;;
54167;SDS011;68429;50.958;3.592;2023-09-19T15:24:05;6.78;;;2.00;;
54167;SDS011;68429;50.958;3.592;2023-09-19T15:26:37;9.88;;;2.58;;
54167;SDS011;68429;50.958;3.592;2023-09-19T15:29:09;6.50;;;2.33;;
54167;SDS011;68429;50.958;3.592;2023-09-19T15:31:35;13.93;;;2.83;;
54167;SDS011;68429;50.958;3.592;2023-09-19T15:34:04;4.47;;;2.30;;
54167;SDS011;68429;50.958;3.592;2023-09-19T15:36:32;7.70;;;2.27;;
54167;SDS011;68429;50.958;3.592;2023-09-19T15:38:59;8.70;;;2.47;;
54167;SDS011;68429;50.958;3.592;2023-09-19T15:41:31;17.63;;;3.20;;
54167;SDS011;68429;50.958;3.592;2023-09-19T15:43:58;7.30;;;1.92;;
54167;SDS011;68429;50.958;3.592;2023-09-19T15:46:26;11.82;;;2.92;;
54167;SDS011;68429;50.958;3.592;2023-09-19T15:48:52;6.20;;;2.08;;
54167;SDS011;68429;50.958;3.592;2023-09-19T15:51:18;8.90;;;3.10;;
54167;SDS011;68429;50.958;3.592;2023-09-19T15:53:45;7.05;;;2.03;;
54167;SDS011;68429;50.958;3.592;2023-09-19T15:56:15;6.50;;;2.35;;
54167;SDS011;68429;50.958;3.592;2023-09-19T15:58:43;12.02;;;2.33;;
54167;SDS011;68429;50.958;3.592;2023-09-19T16:01:10;7.33;;;2.40;;
54167;SDS011;68429;50.958;3.592;2023-09-19T16:03:37;8.10;;;2.25;;
54167;SDS011;68429;50.958;3.592;2023-09-19T16:06:13;8.75;;;2.38;;